Time;durP1;ratioP1;P1;durP2;ratioP2;P2;SDS_P1;SDS_P2;PMS_P1;PMS_P2;Temp;Humidity;BMP_temperature;BMP_pressure;BME280_temperature;BME280_humidity;BME280_pressure;Samples;Min_cycle;Max_cycle;Signal;HPM_P1;HPM_P2
2023/04/22 00:01:26;;;;;;;22.00;17.17;;;;;;;6.70;100.00;100670.69;5241762;28;21019;-66
2023/04/22 00:03:57;;;;;;;20.13;16.00;;;;;;;6.69;100.00;100674.28;5225912;28;20361;-67
2023/04/22 00:06:28;;;;;;;22.20;17.65;;;;;;;6.64;100.00;100681.69;5218405;28;20029;-67
2023/04/22 00:09:00;;;;;;;21.60;16.23;;;;;;;6.58;100.00;100679.44;5224012;28;20022;-66
2023/04/22 00:11:31;;;;;;;23.45;18.08;;;;;;;6.53;100.00;100681.50;5230608;28;20041;-66
2023/04/22 00:14:03;;;;;;;22.45;18.95;;;;;;;6.48;100.00;100677.34;5221003;28;20024;-66
2023/04/22 00:16:34;;;;;;;24.90;20.40;;;;;;;6.54;100.00;100675.25;5225620;28;20045;-67
2023/04/22 00:19:05;;;;;;;24.58;20.67;;;;;;;6.51;100.00;100680.75;5232294;28;20037;-66
2023/04/22 00:21:37;;;;;;;24.52;20.13;;;;;;;6.47;100.00;100672.13;5229524;28;20044;-66
2023/04/22 00:24:08;;;;;;;25.00;19.70;;;;;;;6.41;100.00;100676.03;5222946;28;20026;-67
2023/04/22 00:26:40;;;;;;;28.88;20.35;;;;;;;6.45;100.00;100677.53;5235813;28;20106;-66
2023/04/22 00:29:11;;;;;;;24.65;19.38;;;;;;;6.39;100.00;100674.44;5232306;28;20426;-66
2023/04/22 00:31:42;;;;;;;21.75;18.52;;;;;;;6.35;100.00;100670.22;5234964;28;20479;-66
2023/04/22 00:34:16;;;;;;;25.33;19.98;;;;;;;6.38;100.00;100678.84;5225951;28;20544;-66
2023/04/22 00:36:47;;;;;;;25.73;18.75;;;;;;;6.39;100.00;100671.78;5229095;28;20029;-66
2023/04/22 00:39:19;;;;;;;27.48;19.88;;;;;;;6.34;100.00;100679.16;5226204;28;20369;-66
2023/04/22 00:41:51;;;;;;;23.52;18.10;;;;;;;6.37;100.00;100673.66;5238590;28;20057;-66
2023/04/22 00:44:23;;;;;;;24.33;19.25;;;;;;;6.37;100.00;100669.22;5229856;28;20396;-66
2023/04/22 00:46:55;;;;;;;24.35;19.15;;;;;;;6.30;100.00;100675.81;5223834;28;20021;-66
2023/04/22 00:49:27;;;;;;;25.52;19.75;;;;;;;6.25;100.00;100676.13;5229323;28;20388;-66
2023/04/22 00:51:58;;;;;;;25.80;19.80;;;;;;;6.30;100.00;100675.81;5234105;28;20021;-66
2023/04/22 00:54:31;;;;;;;26.77;20.95;;;;;;;6.31;100.00;100679.31;5233232;28;20021;-66
2023/04/22 00:57:04;;;;;;;24.38;20.00;;;;;;;6.23;100.00;100682.44;5229811;28;20030;-67
2023/04/22 00:59:35;;;;;;;23.08;19.65;;;;;;;6.26;100.00;100675.16;5233263;28;20144;-66
2023/04/22 01:02:07;;;;;;;26.33;21.50;;;;;;;6.31;100.00;100681.97;5231787;28;20248;-66
2023/04/22 01:04:38;;;;;;;28.02;20.75;;;;;;;6.31;100.00;100680.19;5229210;28;20025;-66
2023/04/22 01:07:10;;;;;;;27.92;20.67;;;;;;;6.25;100.00;100672.59;5227845;28;20036;-67
2023/04/22 01:09:42;;;;;;;26.98;20.73;;;;;;;6.29;100.00;100676.78;5229662;28;20040;-66
2023/04/22 01:12:13;;;;;;;29.65;21.98;;;;;;;6.26;100.00;100672.50;5228373;28;20156;-66
2023/04/22 01:14:45;;;;;;;27.98;21.77;;;;;;;6.28;100.00;100677.72;5227166;28;20060;-66
2023/04/22 01:17:18;;;;;;;27.95;22.00;;;;;;;6.37;100.00;100674.50;5232686;28;20033;-66
2023/04/22 01:19:51;;;;;;;29.33;23.45;;;;;;;6.34;100.00;100672.03;5237964;28;20033;-68
2023/04/22 01:22:25;;;;;;;29.03;23.97;;;;;;;6.36;100.00;100667.50;5228298;28;20033;-66
2023/04/22 01:24:56;;;;;;;28.15;23.52;;;;;;;6.44;100.00;100674.97;5236522;28;20032;-66
2023/04/22 01:27:28;;;;;;;28.63;22.83;;;;;;;6.40;100.00;100668.16;5235239;28;20483;-67
2023/04/22 01:29:59;;;;;;;29.13;24.17;;;;;;;6.42;100.00;100674.22;5248465;28;20032;-66
2023/04/22 01:32:31;;;;;;;28.35;24.35;;;;;;;6.40;100.00;100666.34;5235828;28;20021;-66
2023/04/22 01:35:03;;;;;;;29.10;25.20;;;;;;;6.45;100.00;100666.94;5233233;28;20474;-66
2023/04/22 01:37:34;;;;;;;28.60;25.13;;;;;;;6.43;100.00;100667.97;5240018;28;20032;-66
2023/04/22 01:40:08;;;;;;;32.33;27.35;;;;;;;6.40;100.00;100669.00;5234211;28;20543;-66
2023/04/22 01:42:40;;;;;;;33.13;27.13;;;;;;;6.49;100.00;100662.28;5236640;28;20422;-66
2023/04/22 01:45:12;;;;;;;33.65;27.88;;;;;;;6.46;100.00;100662.47;5225966;28;20367;-66
2023/04/22 01:47:43;;;;;;;30.02;25.98;;;;;;;6.51;100.00;100664.84;5235075;28;20059;-66
2023/04/22 01:50:14;;;;;;;29.20;25.85;;;;;;;6.54;100.00;100669.94;5234170;28;20025;-66
2023/04/22 01:52:46;;;;;;;27.35;24.38;;;;;;;6.54;100.00;100665.53;5236807;28;20053;-66
2023/04/22 01:55:18;;;;;;;27.88;24.88;;;;;;;6.49;100.00;100659.66;5236768;28;20079;-66
2023/04/22 01:57:49;;;;;;;28.08;24.88;;;;;;;6.53;100.00;100658.50;5238086;28;20021;-66
2023/04/22 02:00:20;;;;;;;30.40;24.73;;;;;;;6.60;100.00;100670.44;5230015;28;20029;-66
2023/04/22 02:02:52;;;;;;;27.65;23.33;;;;;;;6.54;100.00;100664.66;5229938;28;20531;-66
2023/04/22 02:05:23;;;;;;;24.88;21.27;;;;;;;6.61;100.00;100656.22;5242362;28;20025;-66
2023/04/22 02:07:55;;;;;;;25.15;21.38;;;;;;;6.58;100.00;100663.53;5231615;28;20505;-66
2023/04/22 02:10:26;;;;;;;24.55;21.67;;;;;;;6.65;100.00;100668.34;5234917;28;20138;-66
2023/04/22 02:12:58;;;;;;;23.95;20.23;;;;;;;6.69;100.00;100655.72;5226764;28;20129;-66
2023/04/22 02:15:29;;;;;;;26.50;21.40;;;;;;;6.64;100.00;100660.50;5228147;28;20029;-66
2023/04/22 02:18:01;;;;;;;23.88;18.90;;;;;;;6.67;100.00;100654.97;5234071;28;20068;-66
2023/04/22 02:20:32;;;;;;;25.27;20.85;;;;;;;6.68;100.00;100656.69;5236828;28;20026;-66
2023/04/22 02:23:04;;;;;;;25.10;19.38;;;;;;;6.66;100.00;100659.44;5237252;28;20030;-66
2023/04/22 02:25:36;;;;;;;23.98;20.73;;;;;;;6.63;100.00;100656.97;5233300;28;20032;-66
2023/04/22 02:28:07;;;;;;;24.40;20.80;;;;;;;6.59;100.00;100649.31;5226261;28;20034;-66
2023/04/22 02:30:39;;;;;;;26.05;21.35;;;;;;;6.60;100.00;100653.69;5231138;28;20107;-66
2023/04/22 02:33:11;;;;;;;25.33;20.75;;;;;;;6.54;100.00;100643.44;5225146;28;20029;-66
2023/04/22 02:35:42;;;;;;;25.85;20.77;;;;;;;6.65;100.00;100641.84;5223335;28;20424;-66
2023/04/22 02:38:13;;;;;;;26.00;20.42;;;;;;;6.62;100.00;100641.19;5224756;28;20021;-66
2023/04/22 02:40:45;;;;;;;25.40;20.25;;;;;;;6.62;100.00;100638.53;5227970;28;20475;-66
2023/04/22 02:43:16;;;;;;;25.20;19.65;;;;;;;6.66;100.00;100638.22;5232427;28;20025;-66
2023/04/22 02:45:47;;;;;;;24.35;19.17;;;;;;;6.74;100.00;100639.53;5231344;28;20608;-66
2023/04/22 02:48:19;;;;;;;22.20;19.25;;;;;;;6.68;100.00;100638.13;5236149;28;20026;-67
2023/04/22 02:50:50;;;;;;;27.52;20.58;;;;;;;6.61;100.00;100639.47;5229630;28;20108;-66
2023/04/22 02:53:22;;;;;;;24.58;19.70;;;;;;;6.59;100.00;100628.94;5235013;28;20033;-66
2023/04/22 02:55:54;;;;;;;24.67;20.10;;;;;;;6.70;100.00;100628.28;5243006;28;20028;-66
2023/04/22 02:58:26;;;;;;;22.95;18.92;;;;;;;6.68;100.00;100630.19;5232380;28;20030;-66
2023/04/22 03:00:57;;;;;;;24.70;20.73;;;;;;;6.67;100.00;100631.13;5243517;28;20036;-66
2023/04/22 03:03:28;;;;;;;26.67;21.45;;;;;;;6.68;100.00;100631.03;5227036;28;20519;-66
2023/04/22 03:06:00;;;;;;;26.17;20.60;;;;;;;6.74;100.00;100635.09;5233769;28;20034;-66
2023/04/22 03:08:31;;;;;;;25.83;21.95;;;;;;;6.63;100.00;100634.91;5231601;28;20716;-66
2023/04/22 03:11:04;;;;;;;25.58;20.90;;;;;;;6.76;100.00;100627.03;5239971;28;20037;-66
2023/04/22 03:13:35;;;;;;;25.08;21.20;;;;;;;6.72;100.00;100625.53;5224063;28;20060;-66
2023/04/22 03:16:06;;;;;;;28.92;23.17;;;;;;;6.71;100.00;100622.00;5231668;28;20484;-66
2023/04/22 03:18:38;;;;;;;25.48;20.30;;;;;;;6.64;100.00;100621.56;5242461;28;20479;-66
2023/04/22 03:21:09;;;;;;;28.10;22.05;;;;;;;6.70;100.00;100616.81;5233578;28;20098;-66
2023/04/22 03:23:41;;;;;;;26.55;21.88;;;;;;;6.73;100.00;100614.84;5230995;28;20021;-66
2023/04/22 03:26:12;;;;;;;27.35;22.17;;;;;;;6.78;100.00;100609.22;5227152;28;20040;-66
2023/04/22 03:28:44;;;;;;;26.10;21.52;;;;;;;6.70;100.00;100601.75;5232043;28;20036;-66
2023/04/22 03:31:15;;;;;;;26.13;22.40;;;;;;;6.72;100.00;100606.97;5221916;28;20044;-66
2023/04/22 03:33:47;;;;;;;28.92;23.23;;;;;;;6.68;100.00;100603.66;5231747;28;20017;-66
2023/04/22 03:36:18;;;;;;;29.58;22.20;;;;;;;6.74;100.00;100605.06;5230053;28;20495;-66
2023/04/22 03:38:50;;;;;;;27.67;22.52;;;;;;;6.62;100.00;100598.75;5229784;28;20032;-66
2023/04/22 03:41:22;;;;;;;31.38;22.88;;;;;;;6.59;100.00;100594.50;5222576;28;20033;-66
2023/04/22 03:43:53;;;;;;;27.95;22.98;;;;;;;6.55;100.00;100594.78;5225027;28;20091;-66
2023/04/22 03:46:25;;;;;;;29.23;23.08;;;;;;;6.52;100.00;100584.38;5229826;28;20029;-66
2023/04/22 03:48:56;;;;;;;31.58;24.65;;;;;;;6.52;100.00;100587.03;5231277;28;20044;-66
2023/04/22 03:51:28;;;;;;;29.15;23.27;;;;;;;6.48;100.00;100587.25;5228583;28;20033;-66
2023/04/22 03:53:59;;;;;;;29.95;24.42;;;;;;;6.47;100.00;100590.81;5229862;28;20021;-68
2023/04/22 03:56:30;;;;;;;33.13;25.80;;;;;;;6.55;100.00;100586.84;5236853;28;20484;-66
2023/04/22 03:59:02;;;;;;;34.08;26.02;;;;;;;6.52;100.00;100584.38;5230173;28;20025;-66
2023/04/22 04:01:34;;;;;;;34.20;26.30;;;;;;;6.47;100.00;100580.22;5229872;28;20036;-66
2023/04/22 04:04:06;;;;;;;33.80;26.05;;;;;;;6.45;100.00;100587.41;5231984;28;20044;-66
2023/04/22 04:06:38;;;;;;;34.65;26.38;;;;;;;6.44;100.00;100579.56;5232522;28;20064;-66
2023/04/22 04:09:10;;;;;;;36.90;26.70;;;;;;;6.42;100.00;100569.09;5231629;28;20472;-66
2023/04/22 04:11:42;;;;;;;33.95;26.95;;;;;;;6.37;100.00;100565.03;5229228;28;20030;-66
2023/04/22 04:14:13;;;;;;;33.42;26.13;;;;;;;6.39;100.00;100579.03;5228683;28;20017;-68
2023/04/22 04:16:45;;;;;;;37.22;27.83;;;;;;;6.38;100.00;100574.66;5229694;28;20057;-66
2023/04/22 04:19:16;;;;;;;38.15;28.35;;;;;;;6.36;100.00;100576.56;5230601;28;20018;-66
2023/04/22 04:21:48;;;;;;;37.72;28.20;;;;;;;6.38;100.00;100575.50;5233104;28;20060;-66
2023/04/22 04:24:19;;;;;;;35.72;26.90;;;;;;;6.33;100.00;100560.84;5230569;28;20037;-66
2023/04/22 04:26:50;;;;;;;35.92;26.05;;;;;;;6.35;100.00;100567.75;5229193;28;20029;-66
2023/04/22 04:29:22;;;;;;;31.95;25.25;;;;;;;6.37;100.00;100572.97;5228383;28;20026;-66
2023/04/22 04:31:54;;;;;;;33.00;26.10;;;;;;;6.36;100.00;100564.16;5236267;28;20013;-66
2023/04/22 04:34:25;;;;;;;37.63;27.17;;;;;;;6.38;100.00;100572.00;5225857;28;20037;-66
2023/04/22 04:36:57;;;;;;;37.25;26.85;;;;;;;6.36;100.00;100572.09;5235656;28;20136;-66
2023/04/22 04:39:29;;;;;;;33.03;24.80;;;;;;;6.37;100.00;100568.50;5234750;28;20075;-66
2023/04/22 04:42:01;;;;;;;32.78;25.00;;;;;;;6.51;100.00;100562.34;5221958;28;20100;-66
2023/04/22 04:44:32;;;;;;;33.72;25.48;;;;;;;6.52;100.00;100569.34;5230005;28;20116;-66
2023/04/22 04:47:04;;;;;;;33.58;25.85;;;;;;;6.53;100.00;100571.03;5226936;28;20022;-66
2023/04/22 04:49:39;;;;;;;33.90;26.50;;;;;;;6.60;100.00;100576.81;5234804;28;20037;-66
2023/04/22 04:52:10;;;;;;;33.15;26.20;;;;;;;6.61;100.00;100581.13;5240116;28;20029;-66
2023/04/22 04:54:42;;;;;;;31.95;25.75;;;;;;;6.69;100.00;100573.53;5229402;28;20088;-66
2023/04/22 04:57:13;;;;;;;37.28;27.23;;;;;;;6.66;100.00;100574.59;5232523;28;20026;-66
2023/04/22 04:59:45;;;;;;;35.15;27.15;;;;;;;6.67;100.00;100583.38;5231682;28;20017;-66
2023/04/22 05:02:16;;;;;;;35.10;27.98;;;;;;;6.73;100.00;100574.19;5238261;28;20483;-66
2023/04/22 05:04:47;;;;;;;32.17;25.58;;;;;;;6.74;100.00;100582.06;5233977;28;20037;-66
2023/04/22 05:07:19;;;;;;;33.05;25.45;;;;;;;6.83;100.00;100577.97;5244431;28;20037;-66
2023/04/22 05:09:50;;;;;;;33.67;26.38;;;;;;;6.76;100.00;100580.16;5236144;28;20537;-66
2023/04/22 05:12:22;;;;;;;31.08;25.58;;;;;;;6.85;100.00;100571.59;5244650;28;20045;-66
2023/04/22 05:14:53;;;;;;;31.92;25.30;;;;;;;6.89;100.00;100563.47;5235817;28;20036;-66
2023/04/22 05:17:25;;;;;;;30.13;24.25;;;;;;;6.81;100.00;100548.06;5231779;28;20503;-66
2023/04/22 05:19:56;;;;;;;30.52;24.42;;;;;;;6.87;100.00;100555.59;5236831;28;20035;-66
2023/04/22 05:22:28;;;;;;;30.23;24.15;;;;;;;6.80;100.00;100555.13;5246297;28;20048;-66
2023/04/22 05:24:59;;;;;;;27.50;23.50;;;;;;;7.01;100.00;100552.88;5236177;28;20026;-66
2023/04/22 05:27:31;;;;;;;32.05;25.02;;;;;;;6.89;100.00;100568.75;5223150;28;20030;-66
2023/04/22 05:30:03;;;;;;;31.45;24.60;;;;;;;6.96;100.00;100573.56;5221893;28;20553;-66
2023/04/22 05:32:34;;;;;;;33.65;26.00;;;;;;;6.92;100.00;100569.38;5220309;28;20061;-66
2023/04/22 05:35:06;;;;;;;33.78;27.40;;;;;;;6.99;100.00;100562.72;5227442;28;20057;-66
2023/04/22 05:37:37;;;;;;;40.67;31.70;;;;;;;7.04;100.00;100554.50;5230363;28;20487;-68
2023/04/22 05:40:09;;;;;;;39.75;31.52;;;;;;;7.04;100.00;100555.34;5236062;28;20028;-66
2023/04/22 05:42:41;;;;;;;41.03;32.45;;;;;;;7.15;100.00;100561.72;5228281;28;20025;-66
2023/04/22 05:45:12;;;;;;;43.72;34.60;;;;;;;7.14;100.00;100562.69;5226758;28;20038;-66
2023/04/22 05:47:43;;;;;;;46.08;33.70;;;;;;;7.23;100.00;100567.38;5237620;28;20037;-66
2023/04/22 05:50:15;;;;;;;45.10;34.80;;;;;;;7.25;100.00;100558.34;5226336;28;20017;-66
2023/04/22 05:52:46;;;;;;;43.83;33.55;;;;;;;7.21;100.00;100569.25;5226930;28;20475;-66
2023/04/22 05:55:18;;;;;;;42.28;33.30;;;;;;;7.28;100.00;100570.56;5229899;28;20022;-66
2023/04/22 05:57:50;;;;;;;42.05;33.25;;;;;;;7.25;100.00;100558.34;5225532;28;20483;-66
2023/04/22 06:00:21;;;;;;;40.67;33.38;;;;;;;7.36;100.00;100557.59;5236799;28;20104;-66
2023/04/22 06:02:53;;;;;;;40.65;33.85;;;;;;;7.35;100.00;100550.63;5225645;28;20106;-66
2023/04/22 06:05:24;;;;;;;41.80;35.00;;;;;;;7.53;100.00;100560.94;5226878;28;20406;-66
2023/04/22 06:07:55;;;;;;;41.63;33.47;;;;;;;7.48;100.00;100555.94;5231780;28;20053;-66
2023/04/22 06:10:27;;;;;;;40.47;32.53;;;;;;;7.56;100.00;100564.22;5229181;28;20453;-66
2023/04/22 06:12:58;;;;;;;38.67;32.35;;;;;;;7.61;100.00;100556.81;5225910;28;20029;-66
2023/04/22 06:15:29;;;;;;;38.85;31.30;;;;;;;7.69;100.00;100566.03;5237072;28;20109;-66
2023/04/22 06:18:01;;;;;;;41.50;33.97;;;;;;;7.78;100.00;100568.06;5229112;28;20480;-66
2023/04/22 06:20:34;;;;;;;41.08;35.03;;;;;;;7.80;100.00;100560.84;5231535;28;20077;-66
2023/04/22 06:23:06;;;;;;;40.53;34.73;;;;;;;7.85;100.00;100558.72;5234125;28;20030;-66
2023/04/22 06:25:37;;;;;;;40.75;34.40;;;;;;;7.90;100.00;100553.94;5228887;28;20288;-66
2023/04/22 06:28:08;;;;;;;44.65;35.90;;;;;;;8.00;100.00;100551.50;5233376;28;20434;-66
2023/04/22 06:30:40;;;;;;;38.53;32.85;;;;;;;8.09;100.00;100555.28;5230234;28;20045;-66
2023/04/22 06:33:11;;;;;;;38.55;31.75;;;;;;;8.12;100.00;100547.94;5236474;28;20029;-66
2023/04/22 06:35:44;;;;;;;40.40;32.10;;;;;;;8.24;100.00;100559.50;5235367;28;20104;-66
2023/04/22 06:38:15;;;;;;;37.08;31.45;;;;;;;8.26;100.00;100554.94;5234909;28;20096;-67
2023/04/22 06:40:46;;;;;;;42.20;31.48;;;;;;;8.44;100.00;100553.66;5233609;28;20029;-66
2023/04/22 06:43:18;;;;;;;39.95;32.15;;;;;;;8.59;100.00;100545.50;5230902;28;20087;-66
2023/04/22 06:45:49;;;;;;;40.13;32.95;;;;;;;8.65;100.00;100539.75;5238731;28;20053;-66
2023/04/22 06:48:20;;;;;;;42.13;34.05;;;;;;;8.76;100.00;100534.50;5233164;28;20454;-66
2023/04/22 06:50:52;;;;;;;43.28;33.15;;;;;;;8.80;100.00;100529.78;5234374;28;20057;-66
2023/04/22 06:53:23;;;;;;;39.70;32.10;;;;;;;8.86;100.00;100539.13;5235169;28;20040;-66
2023/04/22 06:55:54;;;;;;;44.10;36.38;;;;;;;8.82;100.00;100539.38;5232064;28;20033;-66
2023/04/22 06:58:26;;;;;;;43.72;35.47;;;;;;;9.02;100.00;100545.84;5235127;28;20137;-66
2023/04/22 07:00:57;;;;;;;41.80;34.92;;;;;;;9.11;100.00;100549.66;5234949;28;20029;-66
2023/04/22 07:03:28;;;;;;;40.03;33.45;;;;;;;9.15;100.00;100543.13;5233903;28;20602;-66
2023/04/22 07:06:00;;;;;;;42.08;33.80;;;;;;;9.31;100.00;100545.47;5234109;28;20030;-66
2023/04/22 07:08:31;;;;;;;38.38;28.90;;;;;;;9.56;100.00;100544.44;5228134;28;20468;-66
2023/04/22 07:11:03;;;;;;;35.40;28.10;;;;;;;9.70;100.00;100539.84;5240739;28;20028;-66
2023/04/22 07:13:34;;;;;;;36.42;26.70;;;;;;;9.76;100.00;100539.38;5228852;28;20076;-66
2023/04/22 07:16:06;;;;;;;35.13;25.50;;;;;;;9.88;100.00;100543.75;5233494;28;20037;-66
2023/04/22 07:18:38;;;;;;;35.03;26.85;;;;;;;9.91;100.00;100540.81;5242880;28;20071;-66
2023/04/22 07:21:10;;;;;;;29.90;24.40;;;;;;;9.99;100.00;100533.09;5230445;28;20021;-66
2023/04/22 07:23:41;;;;;;;28.27;22.60;;;;;;;10.08;100.00;100541.31;5223789;28;20018;-66
2023/04/22 07:26:13;;;;;;;28.00;21.80;;;;;;;10.14;100.00;100538.16;5227589;28;20020;-66
2023/04/22 07:28:44;;;;;;;29.80;20.17;;;;;;;10.18;100.00;100550.28;5229320;28;20558;-66
2023/04/22 07:31:15;;;;;;;27.52;20.15;;;;;;;10.18;100.00;100539.59;5225631;28;20056;-66
2023/04/22 07:33:47;;;;;;;24.30;19.40;;;;;;;10.35;100.00;100541.81;5226062;28;20021;-66
2023/04/22 07:36:18;;;;;;;22.17;17.83;;;;;;;10.40;100.00;100536.97;5237660;28;20021;-66
2023/04/22 07:38:49;;;;;;;23.40;18.63;;;;;;;10.42;100.00;100544.84;5229994;28;20480;-66
2023/04/22 07:41:21;;;;;;;25.60;18.30;;;;;;;10.49;100.00;100527.38;5224929;28;20048;-66
2023/04/22 07:43:52;;;;;;;22.40;18.63;;;;;;;10.49;100.00;100538.03;5227196;28;20060;-66
2023/04/22 07:46:24;;;;;;;23.13;20.63;;;;;;;10.51;100.00;100545.94;5232720;28;20080;-66
2023/04/22 07:48:55;;;;;;;23.33;20.05;;;;;;;10.54;100.00;100545.66;5233207;28;20574;-66
2023/04/22 07:51:27;;;;;;;22.90;18.17;;;;;;;10.61;100.00;100536.19;5231453;28;20126;-66
2023/04/22 07:53:58;;;;;;;21.55;18.00;;;;;;;10.66;100.00;100520.66;5227184;28;20025;-66
2023/04/22 07:56:30;;;;;;;22.55;18.58;;;;;;;10.63;100.00;100510.22;5234254;28;20029;-66
2023/04/22 07:59:02;;;;;;;22.50;18.17;;;;;;;10.74;100.00;100512.88;5235183;28;20036;-66
2023/04/22 08:01:33;;;;;;;22.27;18.20;;;;;;;10.88;100.00;100510.88;5242354;28;20511;-67
2023/04/22 08:04:06;;;;;;;23.55;18.05;;;;;;;10.90;100.00;100506.25;5231799;28;20037;-66
2023/04/22 08:06:37;;;;;;;22.63;17.48;;;;;;;10.98;100.00;100503.78;5231931;28;20036;-67
2023/04/22 08:09:09;;;;;;;23.10;18.77;;;;;;;11.04;100.00;100491.75;5234957;28;20021;-67
2023/04/22 08:11:40;;;;;;;20.92;17.05;;;;;;;11.19;100.00;100504.63;5232931;28;20139;-67
2023/04/22 08:14:12;;;;;;;23.63;17.52;;;;;;;11.37;100.00;100496.91;5234341;28;20531;-66
2023/04/22 08:16:43;;;;;;;23.40;17.60;;;;;;;11.52;100.00;100493.88;5228282;28;20534;-67
2023/04/22 08:19:15;;;;;;;23.70;17.77;;;;;;;11.61;100.00;100498.44;5230117;28;20021;-67
2023/04/22 08:21:47;;;;;;;20.27;15.15;;;;;;;11.76;100.00;100491.75;5236286;28;20063;-67
2023/04/22 08:24:18;;;;;;;21.70;15.43;;;;;;;11.85;100.00;100484.78;5240135;28;20346;-67
2023/04/22 08:26:50;;;;;;;17.73;13.80;;;;;;;12.00;100.00;100482.59;5236863;28;20018;-66
2023/04/22 08:29:21;;;;;;;17.15;13.70;;;;;;;12.10;100.00;100477.25;5233837;28;20021;-67
2023/04/22 08:31:53;;;;;;;15.32;12.07;;;;;;;12.28;100.00;100483.66;5237600;28;20033;-67
2023/04/22 08:34:26;;;;;;;13.75;11.70;;;;;;;12.36;100.00;100481.13;5235081;28;20492;-67
2023/04/22 08:36:58;;;;;;;15.05;11.38;;;;;;;12.53;100.00;100468.91;5232317;28;20025;-67
2023/04/22 08:39:29;;;;;;;14.60;11.05;;;;;;;12.63;100.00;100463.56;5238016;28;20021;-67
2023/04/22 08:42:01;;;;;;;13.82;11.57;;;;;;;12.66;100.00;100454.44;5231735;28;20043;-67
2023/04/22 08:44:34;;;;;;;11.23;10.02;;;;;;;12.77;100.00;100434.69;5231926;28;20033;-67
2023/04/22 08:47:06;;;;;;;13.52;10.85;;;;;;;12.83;100.00;100432.28;5237375;28;20021;-67
2023/04/22 08:49:38;;;;;;;13.73;9.80;;;;;;;13.01;100.00;100424.38;5233126;28;20407;-67
2023/04/22 08:52:11;;;;;;;11.85;9.55;;;;;;;13.03;100.00;100422.41;5232022;28;20040;-67
2023/04/22 08:54:43;;;;;;;12.13;9.32;;;;;;;13.03;100.00;100432.28;5229243;28;20091;-67
2023/04/22 08:57:16;;;;;;;12.70;9.05;;;;;;;13.13;100.00;100425.91;5239283;28;20115;-67
2023/04/22 08:59:48;;;;;;;9.67;8.27;;;;;;;13.31;100.00;100415.31;5229134;28;20029;-67
2023/04/22 09:02:22;;;;;;;10.85;8.50;;;;;;;13.53;100.00;100413.25;5239808;28;20045;-67
2023/04/22 09:04:54;;;;;;;10.02;8.10;;;;;;;13.51;100.00;100413.41;5230546;28;20026;-67
2023/04/22 09:07:30;;;;;;;10.70;8.90;;;;;;;13.55;100.00;100422.00;5235223;28;20067;-67
2023/04/22 09:10:01;;;;;;;13.57;9.20;;;;;;;13.79;100.00;100417.94;5231728;28;20033;-67
2023/04/22 09:12:33;;;;;;;10.20;7.93;;;;;;;13.90;100.00;100423.09;5236025;28;20021;-67
2023/04/22 09:15:06;;;;;;;8.45;7.45;;;;;;;14.09;100.00;100420.31;5231004;28;20464;-67
2023/04/22 09:17:37;;;;;;;10.23;8.00;;;;;;;14.12;100.00;100417.31;5232118;28;20537;-67
2023/04/22 09:20:11;;;;;;;10.90;8.43;;;;;;;14.13;100.00;100426.22;5230346;28;20307;-67
2023/04/22 09:22:47;;;;;;;9.38;7.80;;;;;;;14.29;100.00;100414.81;5232810;28;20140;-67
2023/04/22 09:25:21;;;;;;;8.90;7.35;;;;;;;14.45;100.00;100414.97;5231374;28;20018;-67
2023/04/22 09:27:57;;;;;;;9.00;7.80;;;;;;;14.40;100.00;100405.69;5232445;28;20037;-67
2023/04/22 09:30:33;;;;;;;12.18;8.18;;;;;;;14.54;100.00;100404.34;5229141;28;20103;-67
2023/04/22 09:33:06;;;;;;;9.57;7.50;;;;;;;14.74;100.00;100397.81;5232174;28;20107;-67
2023/04/22 09:35:39;;;;;;;9.55;7.45;;;;;;;14.90;100.00;100399.78;5238276;28;20029;-67
2023/04/22 09:38:11;;;;;;;10.77;7.57;;;;;;;14.83;100.00;100394.19;5238116;28;20082;-67
2023/04/22 09:40:43;;;;;;;9.70;7.00;;;;;;;15.16;100.00;100390.88;5228932;28;20029;-67
2023/04/22 09:43:18;;;;;;;9.27;7.50;;;;;;;15.22;100.00;100396.47;5225639;28;20033;-67
2023/04/22 09:45:49;;;;;;;10.38;7.93;;;;;;;15.07;100.00;100398.91;5228341;28;20420;-67
2023/04/22 09:48:22;;;;;;;8.88;7.97;;;;;;;15.05;100.00;100405.41;5227916;28;20025;-67
2023/04/22 09:50:53;;;;;;;11.45;7.90;;;;;;;15.29;100.00;100412.81;5235508;28;20039;-67
2023/04/22 09:53:25;;;;;;;9.32;7.57;;;;;;;15.43;100.00;100408.69;5232636;28;20021;-67
2023/04/22 09:55:56;;;;;;;9.38;7.10;;;;;;;15.21;100.00;100413.59;5239323;28;20399;-67
2023/04/22 09:58:27;;;;;;;9.10;6.63;;;;;;;15.28;100.00;100406.59;5228790;28;20044;-67
2023/04/22 10:00:59;;;;;;;12.23;6.95;;;;;;;15.59;100.00;100406.09;5246233;28;20030;-68
2023/04/22 10:03:31;;;;;;;8.10;7.20;;;;;;;15.53;100.00;100403.19;5234323;28;20183;-67
2023/04/22 10:06:03;;;;;;;9.88;8.48;;;;;;;15.77;100.00;100405.19;5235426;28;20294;-67
2023/04/22 10:08:35;;;;;;;9.25;7.35;;;;;;;15.89;100.00;100409.25;5238178;28;20498;-67
2023/04/22 10:11:07;;;;;;;8.52;7.50;;;;;;;15.90;100.00;100402.00;5237087;28;20025;-67
2023/04/22 10:13:38;;;;;;;8.80;7.40;;;;;;;15.88;100.00;100405.72;5223526;28;20036;-67
2023/04/22 10:16:10;;;;;;;8.90;7.65;;;;;;;15.93;100.00;100410.59;5230817;28;20029;-67
2023/04/22 10:18:41;;;;;;;8.63;7.55;;;;;;;15.95;100.00;100419.34;5236024;28;20075;-67
2023/04/22 10:21:13;;;;;;;7.85;7.05;;;;;;;16.07;100.00;100406.47;5234937;28;20026;-67
2023/04/22 10:23:46;;;;;;;8.60;7.28;;;;;;;16.07;100.00;100404.59;5235676;28;20029;-67
2023/04/22 10:26:58;;;;;;;8.38;7.05;;;;;;;16.21;100.00;100400.44;5235448;28;20033;-67
2023/04/22 10:29:38;;;;;;;8.00;6.30;;;;;;;16.49;100.00;100392.03;5232032;28;20116;-67
2023/04/22 10:32:18;;;;;;;8.52;5.95;;;;;;;16.60;100.00;100391.72;5235501;28;20037;-67
2023/04/22 10:35:07;;;;;;;6.88;5.72;;;;;;;16.85;100.00;100392.59;5235760;28;20610;-67
2023/04/22 10:37:44;;;;;;;6.95;5.97;;;;;;;16.77;100.00;100384.47;5237327;28;20573;-67
2023/04/22 10:40:17;;;;;;;7.90;5.30;;;;;;;16.82;100.00;100373.25;5235540;28;20571;-67
2023/04/22 10:42:51;;;;;;;7.43;4.50;;;;;;;16.93;100.00;100369.34;5233675;28;20120;-67
2023/04/22 10:45:24;;;;;;;6.50;4.38;;;;;;;16.76;100.00;100374.72;5227380;28;20069;-67
2023/04/22 10:48:02;;;;;;;7.68;4.30;;;;;;;16.69;100.00;100389.03;5233606;28;20439;-68
2023/04/22 10:50:34;;;;;;;7.43;4.25;;;;;;;16.65;100.00;100386.69;5234722;28;20075;-67
2023/04/22 10:53:36;;;;;;;5.63;4.28;;;;;;;16.53;100.00;100396.13;5235505;28;20525;-67
2023/04/22 10:56:19;;;;;;;6.85;4.57;;;;;;;16.37;100.00;100396.09;5229813;28;20033;-68
2023/04/22 10:58:50;;;;;;;8.73;5.05;;;;;;;16.16;100.00;100402.75;5238368;28;20067;-67
2023/04/22 11:01:22;;;;;;;6.93;4.80;;;;;;;16.05;100.00;100406.63;5234506;28;20420;-67
2023/04/22 11:03:53;;;;;;;9.43;5.15;;;;;;;15.92;100.00;100406.25;5234762;28;20484;-67
2023/04/22 11:06:26;;;;;;;6.88;5.05;;;;;;;15.75;100.00;100413.41;5227550;28;20045;-67
2023/04/22 11:09:09;;;;;;;7.75;5.53;;;;;;;15.66;100.00;100415.16;5224393;28;20025;-67
2023/04/22 11:11:40;;;;;;;9.38;5.72;;;;;;;15.48;100.00;100419.81;5223684;28;20036;-68
2023/04/22 11:14:12;;;;;;;9.90;6.53;;;;;;;15.36;100.00;100427.31;5234077;28;20017;-68
2023/04/22 11:16:47;;;;;;;10.18;6.78;;;;;;;15.20;100.00;100422.66;5231307;28;20507;-68
2023/04/22 11:19:18;;;;;;;10.15;7.43;;;;;;;15.13;100.00;100415.38;5229759;28;20468;-68
2023/04/22 11:21:52;;;;;;;10.35;6.95;;;;;;;15.09;100.00;100412.16;5240503;28;20032;-68
2023/04/22 11:24:23;;;;;;;8.15;7.13;;;;;;;15.02;100.00;100408.44;5234932;28;20057;-68
2023/04/22 11:26:55;;;;;;;8.60;7.60;;;;;;;14.92;100.00;100411.22;5232862;28;20486;-68
2023/04/22 11:29:27;;;;;;;9.25;7.07;;;;;;;14.86;100.00;100412.69;5224927;28;20116;-68
2023/04/22 11:31:58;;;;;;;8.80;7.78;;;;;;;14.78;100.00;100419.81;5236438;28;20106;-68